Bynum, North Carolina
Current Conditions -  °F | °C
As of 10:56 AM on Thursday 27 Nov 2014 (Local Time) from KIGX Reporting Station
Light Rain Light Rain  
Wind Chill: 38°   Ceiling: 1300
Heat Index: 42°   Visibility: 4mi
Dew Point: 39°   Wind: 7mph
Humidity: 89%   Direction: 340°NNW
Pressure: 30.06"   Gusts: NA
Location:  35.77°N, 79.14°W
Report Text: KIGX 271556Z AUTO 34006KT 4SM -RA BR SCT007 BKN013 OVC027 06/04 A3006 RMK AO2 RAB33 SLP181 P0004 T00560039
Loading
Personal Weather Stations






























Interactive Weather Map New forecast layout! Learn more

10-Day Weather Forecast

Advertisements
Track Severe Weather on mobile